Mary Bennett — WDC4592 — position and weather

sailwx.info

Track history (hours):
 
Tides and Currents Weather Stations Pressure Air Temp Water Temp Dewpoint Dewpoint Depression Visibility Wind Speed Wind Dir Waves Ship Positions

Mary Bennett

Owner: Savannah Marine Services, Savannah, GA. More information available from US FCC via Universal Licensing System and Coast Guard Vessel Documentation Center.

Last reported at 2014-Nov-28 05:34 UTC. Time now 2014-Nov-28 06:56 UTC.
Position N 34°43' W 076°42'.

Length 21 m.

Type: Tug. MMSI: 367027140.

Date/timePositionNaut miles runAvg speedWind from/ knotsBaromVisibWave heightAir tempDewpointWater temp
2014-Nov-28 05:34N 34°43' W 076°42'0 0.0
2014-Nov-28 04:33N 34°43' W 076°42'0 0.0
2014-Nov-28 03:33N 34°43' W 076°42'0 0.0
2014-Nov-28 02:33N 34°43' W 076°42'0 0.2
2014-Nov-28 01:33N 34°43' W 076°42'  
2014-Nov-22 05:13N 34°40' W 077°04'4 4.8
2014-Nov-22 04:29N 34°42' W 076°60'4 3.7
2014-Nov-22 03:31N 34°43' W 076°56'3 3.5
2014-Nov-22 02:33N 34°43' W 076°52'4 3.9
2014-Nov-22 01:33N 34°43' W 076°47'4 4.1
2014-Nov-22 00:33N 34°43' W 076°42'0 0.1
2014-Nov-21 23:34N 34°43' W 076°42'0 0.3
2014-Nov-21 22:33N 34°43' W 076°42'3 3.2
2014-Nov-21 21:33N 34°40' W 076°40'3 3.3
2014-Nov-21 20:33N 34°43' W 076°42'0 0.3
2014-Nov-21 19:33N 34°43' W 076°42'0 0.0
2014-Nov-21 18:34N 34°43' W 076°42'0 0.0
2014-Nov-21 17:34N 34°43' W 076°42'0 0.0
2014-Nov-21 16:33N 34°43' W 076°42'0 0.0
2014-Nov-21 15:34N 34°43' W 076°42'0 0.0
2014-Nov-21 14:33N 34°43' W 076°42'0 0.0
2014-Nov-21 13:33N 34°43' W 076°42'0 0.0
2014-Nov-21 12:33N 34°43' W 076°42'0 0.0
2014-Nov-21 11:33N 34°43' W 076°42'0 0.0
2014-Nov-21 10:33N 34°43' W 076°42'0 0.0
2014-Nov-21 09:33N 34°43' W 076°42'0 0.0
2014-Nov-21 08:33N 34°43' W 076°42'0 0.0
2014-Nov-21 07:34N 34°43' W 076°42'0 0.0
2014-Nov-21 06:33N 34°43' W 076°42'0 0.1
2014-Nov-21 05:33N 34°43' W 076°42'1 1.0
2014-Nov-21 04:33N 34°44' W 076°42'5 4.8
2014-Nov-21 03:33N 34°48' W 076°41'4 4.2
2014-Nov-21 02:33N 34°53' W 076°41'4 3.7
2014-Nov-21 01:33N 34°56' W 076°39'4 3.7
2014-Nov-21 00:31N 34°59' W 076°41'  
Track history (hours):
 
Tides and Currents Weather Stations Pressure Air Temp Water Temp Dewpoint Dewpoint Depression Visibility Wind Speed Wind Dir Waves Ship Positions

Mary Bennett

Owner: Savannah Marine Services, Savannah, GA. More information available from US FCC via Universal Licensing System and Coast Guard Vessel Documentation Center.

Last reported at 2014-Nov-28 05:34 UTC. Time now 2014-Nov-28 06:56 UTC.
Position N 34°43' W 076°42'.

Length 21 m.

Type: Tug. MMSI: 367027140.

Date/timePositionNaut miles runAvg speedWind from/ knotsBaromVisibWave heightAir tempDewpointWater temp
2014-Nov-28 05:34N 34°43' W 076°42'0 0.0
2014-Nov-28 04:33N 34°43' W 076°42'0 0.0
2014-Nov-28 03:33N 34°43' W 076°42'0 0.0
2014-Nov-28 02:33N 34°43' W 076°42'0 0.2
2014-Nov-28 01:33N 34°43' W 076°42'  
2014-Nov-22 05:13N 34°40' W 077°04'4 4.8
2014-Nov-22 04:29N 34°42' W 076°60'4 3.7
2014-Nov-22 03:31N 34°43' W 076°56'3 3.5
2014-Nov-22 02:33N 34°43' W 076°52'4 3.9
2014-Nov-22 01:33N 34°43' W 076°47'4 4.1
2014-Nov-22 00:33N 34°43' W 076°42'0 0.1
2014-Nov-21 23:34N 34°43' W 076°42'0 0.3
2014-Nov-21 22:33N 34°43' W 076°42'3 3.2
2014-Nov-21 21:33N 34°40' W 076°40'3 3.3
2014-Nov-21 20:33N 34°43' W 076°42'0 0.3
2014-Nov-21 19:33N 34°43' W 076°42'0 0.0
2014-Nov-21 18:34N 34°43' W 076°42'0 0.0
2014-Nov-21 17:34N 34°43' W 076°42'0 0.0
2014-Nov-21 16:33N 34°43' W 076°42'0 0.0
2014-Nov-21 15:34N 34°43' W 076°42'0 0.0
2014-Nov-21 14:33N 34°43' W 076°42'0 0.0
2014-Nov-21 13:33N 34°43' W 076°42'0 0.0
2014-Nov-21 12:33N 34°43' W 076°42'0 0.0
2014-Nov-21 11:33N 34°43' W 076°42'0 0.0
2014-Nov-21 10:33N 34°43' W 076°42'0 0.0
2014-Nov-21 09:33N 34°43' W 076°42'0 0.0
2014-Nov-21 08:33N 34°43' W 076°42'0 0.0
2014-Nov-21 07:34N 34°43' W 076°42'0 0.0
2014-Nov-21 06:33N 34°43' W 076°42'0 0.1
2014-Nov-21 05:33N 34°43' W 076°42'1 1.0
2014-Nov-21 04:33N 34°44' W 076°42'5 4.8
2014-Nov-21 03:33N 34°48' W 076°41'4 4.2
2014-Nov-21 02:33N 34°53' W 076°41'4 3.7
2014-Nov-21 01:33N 34°56' W 076°39'4 3.7
2014-Nov-21 00:31N 34°59' W 076°41'  

Dump ship's entire track history